Latest Coastal Weather Observations for Bedout Island

IDW60701

Issued at 9:43 pm WST Friday 26 August 2016 (issued every 10 minutes, with the page automatically refreshed every 10 minutes)

About coastal observations | Map of coastal stations | Coastal observations for WA | Marine services | Other Formats
Station Details ID: 004100 Name: BEDOUT ISLAND Lat: -19.59 Lon: 119.10 Height: 8.6 m
Data from the previous 72 hours. | See also: Recent months at Bedout Island
Date/Time
WST
Temp
°C
Wind Pressure Rain since
9am
mm
Weather Cloud Vis
km
Sea
Height
m
Swell
Dir  Spd
kts
Gust
kts
hPa Trend Height
m
Period
s
Dir
26/09:30pm 22.3 E 1 3 1014.3 - - - - - - - - -
26/09:00pm 21.4 CALM 0 3 1014.4 - - - - - - - - -
26/08:30pm 21.8 CALM 0 1 1014.4 - - - - - - - - -
26/08:00pm 22.1 E 3 4 1014.2 - - - - - - - - -
26/07:30pm 21.5 E 5 6 1014.0 - - - - - - - - -
26/07:00pm 21.8 E 6 8 1013.8 - - - - - - - - -
26/06:30pm 22.5 E 8 8 1013.5 - - - - - - - - -
26/06:00pm 22.9 E 8 9 1013.2 - - - - - - - - -
26/05:30pm 23.5 E 10 11 1013.2 - - - - - - - - -
26/05:00pm 24.0 E 10 12 1013.1 - - - - - - - - -
26/04:30pm 24.4 E 10 11 1012.9 - - - - - - - - -
26/04:00pm 24.7 E 12 13 1013.0 - - - - - - - - -
26/03:30pm 24.9 E 13 15 1012.9 - - - - - - - - -
26/03:00pm 25.1 E 15 17 1012.9 - - - - - - - - -
26/02:30pm 24.7 E 16 18 1013.1 - - - - - - - - -
26/02:00pm 24.7 E 18 20 1013.4 - - - - - - - - -
26/01:30pm 24.6 E 19 22 1013.9 - - - - - - - - -
26/01:00pm 24.5 E 20 23 1014.4 - - - - - - - - -
26/12:30pm 24.2 E 22 25 1014.8 - - - - - - - - -
26/12:00pm 24.1 E 22 26 1015.1 - - - - - - - - -
26/11:30am 23.7 E 24 29 1015.5 - - - - - - - - -
26/11:00am 23.6 E 25 29 1015.9 - - - - - - - - -
26/10:30am 23.0 E 27 31 1016.2 - - - - - - - - -
26/10:00am 22.9 E 27 30 1016.5 - - - - - - - - -
26/09:30am 22.7 E 27 32 1016.5 - - - - - - - - -
26/09:00am 22.6 E 26 30 1016.3 - - - - - - - - -
26/08:30am 22.6 E 26 31 1016.3 - - - - - - - - -
26/08:00am 22.2 E 27 31 1015.8 - - - - - - - - -
26/07:30am 21.9 E 27 32 1015.5 - - - - - - - - -
26/07:00am 21.9 E 27 31 1015.3 - - - - - - - - -
26/06:30am 21.5 E 26 31 1015.0 - - - - - - - - -
26/06:00am 21.8 E 27 31 1014.7 - - - - - - - - -
26/05:30am 21.9 E 29 33 1014.4 - - - - - - - - -
26/05:00am 22.1 E 27 31 1014.1 - - - - - - - - -
26/04:30am 22.3 ESE 26 31 1013.8 - - - - - - - - -
26/04:00am 22.3 ESE 25 30 1013.6 - - - - - - - - -
26/03:30am 22.3 ESE 23 29 1013.6 - - - - - - - - -
26/03:00am 22.4 ESE 23 26 1013.5 - - - - - - - - -
26/02:30am 22.5 ESE 23 27 1013.9 - - - - - - - - -
26/02:00am 22.5 ESE 19 22 1014.2 - - - - - - - - -
26/01:30am 22.3 SE 18 21 1014.4 - - - - - - - - -
26/01:00am 21.2 SE 15 17 1014.6 - - - - - - - - -
26/12:30am 20.6 SSE 12 15 1014.9 - - - - - - - - -
26/12:00am 20.5 SE 12 13 1014.9 - - - - - - - - -
 
Date/Time
WST
Temp
°C
Wind Pressure Rain since
9am
mm
Weather Cloud Vis
km
Sea
Height
m
Swell
Dir  Spd
kts
Gust
kts
hPa Trend Height
m
Period
s
Dir
25/11:00pm 19.9 SE 9 10 1015.6 - - - - - - - - -
25/10:30pm 20.5 SE 9 10 1015.7 - - - - - - - - -
25/10:00pm 20.2 E 8 8 1015.6 - - - - - - - - -
25/09:30pm 21.2 E 5 5 1015.8 - - - - - - - - -
25/09:00pm 21.5 E 4 5 1015.7 - - - - - - - - -
25/08:30pm 21.5 E 4 5 1015.7 - - - - - - - - -
25/08:00pm 22.0 E 4 4 1015.6 - - - - - - - - -
25/07:30pm 21.8 E 4 5 1015.3 - - - - - - - - -
25/07:00pm 22.5 ENE 6 7 1014.9 - - - - - - - - -
25/06:00pm 22.7 ENE 9 10 1014.5 - - - - - - - - -
25/05:30pm 23.4 ENE 9 10 1014.3 - - - - - - - - -
25/05:00pm 24.1 ENE 9 11 1014.2 - - - - - - - - -
25/04:30pm 24.6 ENE 11 12 1014.1 - - - - - - - - -
25/04:00pm 24.8 ENE 11 13 1013.9 - - - - - - - - -
25/03:30pm 25.2 ENE 12 14 1014.2 - - - - - - - - -
25/03:00pm 25.3 ENE 14 16 1014.2 - - - - - - - - -
25/02:30pm 25.4 ENE 16 17 1014.3 - - - - - - - - -
25/02:00pm 25.5 E 16 18 1014.7 - - - - - - - - -
25/01:30pm 25.3 E 18 21 1015.1 - - - - - - - - -
25/01:00pm 25.0 E 19 21 1015.5 - - - - - - - - -
25/12:30pm 24.9 E 20 23 1015.7 - - - - - - - - -
25/12:00pm 24.7 E 22 25 1015.8 - - - - - - - - -
25/11:30am 24.0 E 23 27 1016.2 - - - - - - - - -
25/11:00am 23.6 E 24 28 1016.4 - - - - - - - - -
25/10:30am 23.1 E 25 29 1016.8 - - - - - - - - -
25/10:00am 22.6 E 27 31 1016.7 - - - - - - - - -
25/09:30am 22.3 E 28 31 1016.6 - - - - - - - - -
25/09:00am 22.0 E 28 34 1016.2 - - - - - - - - -
25/08:30am 21.9 E 29 34 1016.0 - - - - - - - - -
25/08:00am 21.6 ESE 29 35 1015.8 - - - - - - - - -
25/07:30am 21.8 ESE 29 34 1015.5 - - - - - - - - -
25/07:00am 21.5 ESE 28 31 1015.2 - - - - - - - - -
25/06:30am 21.2 ESE 28 32 1014.9 - - - - - - - - -
25/06:00am 21.2 ESE 26 31 1014.5 - - - - - - - - -
25/05:30am 21.2 ESE 26 30 1014.2 - - - - - - - - -
25/05:00am 21.6 ESE 25 29 1013.8 - - - - - - - - -
25/04:30am 22.1 ESE 25 29 1013.6 - - - - - - - - -
25/04:00am 22.1 SE 22 25 1013.7 - - - - - - - - -
25/03:30am 21.9 SE 19 23 1013.7 - - - - - - - - -
25/03:00am 21.2 SE 13 15 1013.8 - - - - - - - - -
25/02:30am 21.0 SSE 13 15 1014.1 - - - - - - - - -
25/02:00am 20.9 SSE 14 20 1014.1 - - - - - - - - -
25/01:30am 20.8 S 13 16 1014.2 - - - - - - - - -
25/01:00am 20.7 S 13 15 1014.3 - - - - - - - - -
25/12:30am 20.5 S 13 15 1014.5 - - - - - - - - -
25/12:00am 20.5 S 11 13 1014.5 - - - - - - - - -
 
Date/Time
WST
Temp
°C
Wind Pressure Rain since
9am
mm
Weather Cloud Vis
km
Sea
Height
m
Swell
Dir  Spd
kts
Gust
kts
hPa Trend Height
m
Period
s
Dir
24/11:30pm 20.6 S 11 13 1014.6 - - - - - - - - -
24/11:00pm 20.5 ENE 10 12 1014.7 - - - - - - - - -
24/10:30pm 20.4 ENE 11 12 1014.7 - - - - - - - - -
24/10:00pm 20.5 ENE 10 11 1014.8 - - - - - - - - -
24/09:30pm 20.4 ENE 9 10 1014.9 - - - - - - - - -
24/09:00pm 20.3 ENE 8 10 1014.8 - - - - - - - - -
24/08:30pm 20.2 ENE 6 7 1014.8 - - - - - - - - -
24/08:00pm 21.4 ENE 4 6 1014.6 - - - - - - - - -
24/07:30pm 21.6 ENE 1 3 1014.5 - - - - - - - - -
24/07:00pm 21.5 ENE 4 5 1014.2 - - - - - - - - -
24/06:30pm 21.4 ENE 5 7 1013.9 - - - - - - - - -
24/06:00pm 21.7 ENE 7 8 1013.4 - - - - - - - - -
24/05:30pm 22.4 ENE 8 9 1013.2 - - - - - - - - -
24/05:00pm 23.2 ENE 9 11 1013.1 - - - - - - - - -
24/04:30pm 23.6 ENE 10 12 1013.0 - - - - - - - - -
24/04:00pm 24.1 ENE 10 12 1013.0 - - - - - - - - -
24/03:30pm 24.3 ENE 11 13 1013.1 - - - - - - - - -
24/03:00pm 24.6 ENE 13 15 1013.1 - - - - - - - - -
24/02:30pm 24.4 E 13 16 1013.3 - - - - - - - - -
24/02:00pm 24.2 E 16 20 1013.6 - - - - - - - - -
24/01:30pm 24.5 E 17 19 1014.0 - - - - - - - - -
24/01:00pm 24.2 E 18 20 1014.4 - - - - - - - - -
24/12:30pm 24.4 ESE 18 21 1014.7 - - - - - - - - -
24/12:00pm 23.8 ESE 18 23 1014.9 - - - - - - - - -
24/11:30am 23.6 ESE 20 23 1015.5 - - - - - - - - -
24/11:00am 22.9 ESE 20 24 1016.0 - - - - - - - - -
24/10:30am 22.4 ESE 22 28 1016.4 - - - - - - - - -
24/10:00am 21.5 ESE 23 28 1016.6 - - - - - - - - -
24/09:30am 21.1 ESE 22 27 1016.8 - - - - - - - - -
24/09:00am 20.9 ESE 25 30 1016.5 - - - - - - - - -
24/08:30am 20.5 ESE 26 30 1016.4 - - - - - - - - -
24/08:00am 20.2 ESE 25 29 1016.1 - - - - - - - - -
24/07:30am 20.2 SE 23 27 1015.7 - - - - - - - - -
24/07:00am 19.7 SE 24 27 1015.3 - - - - - - - - -
24/06:30am 19.5 SE 23 27 1014.9 - - - - - - - - -
24/06:00am 19.6 SE 23 27 1014.5 - - - - - - - - -
24/05:30am 19.8 SE 23 27 1014.4 - - - - - - - - -
24/05:00am 20.2 ESE 25 29 1014.1 - - - - - - - - -
24/04:30am 20.4 SE 25 29 1013.9 - - - - - - - - -
24/04:00am 20.7 ESE 24 28 1013.8 - - - - - - - - -
24/03:30am 21.0 ESE 23 26 1013.8 - - - - - - - - -
24/03:00am 21.1 ESE 25 28 1013.6 - - - - - - - - -
24/02:30am 21.2 ESE 24 27 1013.5 - - - - - - - - -
24/02:00am 21.2 ESE 23 27 1013.5 - - - - - - - - -
24/01:30am 21.5 ESE 24 28 1013.5 - - - - - - - - -
24/01:00am 21.9 ESE 23 27 1013.5 - - - - - - - - -
24/12:30am 21.6 ESE 21 24 1013.7 - - - - - - - - -
24/12:00am 21.5 SE 20 22 1013.7 - - - - - - - - -
 
Date/Time
WST
Temp
°C
Wind Pressure Rain since
9am
mm
Weather Cloud Vis
km
Sea
Height
m
Swell
Dir  Spd
kts
Gust
kts
hPa Trend Height
m
Period
s
Dir
23/11:30pm 21.5 SE 18 21 1013.8 - - - - - - - - -
23/11:00pm 21.6 SE 18 21 1013.8 - - - - - - - - -
23/10:30pm 21.6 SE 18 21 1013.8 - - - - - - - - -
23/10:28pm 21.6 SE 18 21 1013.8 - - - - - - - - -
23/10:00pm 19.9 S 8 11 1013.8 - - - - - - - - -

Other Formats:

Comma delimited format used in spreadsheet applications
http://www.bom.gov.au/fwo/IDW60701/IDW60701.94310.axf

JavaScript Object Notation format (JSON) in row-major order
http://www.bom.gov.au/fwo/IDW60701/IDW60701.94310.json